Time;durP1;ratioP1;P1;durP2;ratioP2;P2;SDS_P1;SDS_P2;PMS_P1;PMS_P2;Temp;Humidity;BMP_temperature;BMP_pressure;BME280_temperature;BME280_humidity;BME280_pressure;Samples;Min_cycle;Max_cycle;Signal;HPM_P1;HPM_P2
2021/12/24 00:00:42;;;;;;;13.75;3.05;;;;;;;11.12;67.52;99651.47;4842499;29;20040;-95
2021/12/24 00:03:08;;;;;;;15.60;2.72;;;;;;;11.04;67.59;99667.03;4841495;29;20030;-95
2021/12/24 00:05:34;;;;;;;10.57;2.60;;;;;;;11.00;67.63;99657.69;4841586;29;20022;-95
2021/12/24 00:08:01;;;;;;;8.73;2.60;;;;;;;10.97;67.49;99657.97;4840818;29;20041;-95
2021/12/24 00:10:27;;;;;;;15.02;3.55;;;;;;;10.98;67.90;99655.22;4841129;29;20034;-95
2021/12/24 00:13:03;;;;;;;9.32;2.80;;;;;;;11.00;68.34;99648.03;4841186;29;20037;-95
2021/12/24 00:36:36;;;;;;;8.40;2.65;;;;;;;10.97;67.80;99615.94;4842295;29;20069;-93
2021/12/24 00:39:02;;;;;;;9.57;2.58;;;;;;;10.91;67.96;99606.75;4840907;29;20034;-94
2021/12/24 00:41:28;;;;;;;12.73;2.78;;;;;;;10.87;67.84;99610.59;4840743;29;20132;-95
2021/12/24 00:43:53;;;;;;;11.25;2.50;;;;;;;10.81;67.73;99611.09;4841208;29;20470;-96
2021/12/24 00:46:19;;;;;;;10.73;2.20;;;;;;;10.80;68.13;99610.28;4841378;29;20026;-95
2021/12/24 00:48:46;;;;;;;11.02;3.17;;;;;;;10.78;67.98;99614.81;4841072;29;20037;-95
2021/12/24 00:51:32;;;;;;;12.50;2.95;;;;;;;10.79;68.50;99621.72;4840893;29;20034;-95
2021/12/24 00:56:55;;;;;;;15.77;2.83;;;;;;;11.03;69.13;99613.63;4864966;29;20071;-95
2021/12/24 00:59:20;;;;;;;15.68;3.67;;;;;;;11.16;69.17;99610.84;4844822;29;20455;-95
2021/12/24 01:01:46;;;;;;;20.63;3.63;;;;;;;11.34;69.66;99618.16;4844361;29;20210;-95
2021/12/24 01:04:11;;;;;;;10.48;2.67;;;;;;;11.39;69.37;99621.22;4844375;29;20422;-95
2021/12/24 01:06:37;;;;;;;10.10;2.55;;;;;;;11.48;69.62;99604.66;4844184;29;20496;-95
2021/12/24 01:09:03;;;;;;;24.33;3.05;;;;;;;11.62;70.04;99608.75;4844149;29;20034;-95
2021/12/24 01:11:30;;;;;;;9.45;3.10;;;;;;;11.75;70.33;99604.13;4843932;29;20018;-94
2021/12/24 01:13:57;;;;;;;13.75;2.90;;;;;;;11.84;69.69;99608.56;4844376;29;20059;-94
2021/12/24 01:16:33;;;;;;;13.40;3.22;;;;;;;11.86;69.73;99601.38;4844575;29;20120;-95
2021/12/24 01:19:14;;;;;;;21.08;3.20;;;;;;;11.93;69.93;99593.84;4844064;29;20034;-94
2021/12/24 01:24:31;;;;;;;20.08;3.65;;;;;;;11.81;68.87;99590.44;4845450;29;20044;-95
2021/12/24 01:27:08;;;;;;;12.48;2.65;;;;;;;11.75;68.67;99585.72;4845001;29;20045;-94
2021/12/24 01:37:54;;;;;;;18.65;3.42;;;;;;;11.54;70.97;99575.22;4845070;29;20040;-94
2021/12/24 01:40:27;;;;;;;12.02;3.85;;;;;;;11.73;70.70;99586.78;4843452;29;20511;-94
2021/12/24 01:42:54;;;;;;;12.73;2.88;;;;;;;11.73;70.87;99582.38;4843308;29;20033;-95
2021/12/24 01:45:20;;;;;;;16.33;4.15;;;;;;;11.84;71.18;99582.28;4843386;29;20026;-94
2021/12/24 01:47:46;;;;;;;13.20;3.53;;;;;;;11.93;70.90;99577.22;4844640;29;20086;-95
2021/12/24 01:50:13;;;;;;;27.40;4.07;;;;;;;12.08;71.37;99583.78;4843461;29;20100;-95
2021/12/24 01:52:39;;;;;;;23.05;6.03;;;;;;;12.17;71.39;99575.09;4843420;29;20029;-95
2021/12/24 01:55:09;;;;;;;28.63;4.47;;;;;;;12.20;71.87;99569.53;4844547;29;20495;-95
2021/12/24 01:57:36;;;;;;;23.52;4.25;;;;;;;12.36;71.52;99574.31;4843170;29;20030;-95
2021/12/24 02:00:05;;;;;;;31.25;5.50;;;;;;;12.48;71.10;99565.31;4842953;29;20030;-95
2021/12/24 02:02:31;;;;;;;14.95;3.70;;;;;;;12.54;70.96;99578.88;4843049;29;20026;-94
2021/12/24 02:04:57;;;;;;;19.13;4.00;;;;;;;12.62;70.80;99569.34;4841952;29;20042;-93
2021/12/24 02:07:22;;;;;;;24.20;5.57;;;;;;;12.65;71.13;99563.78;4842982;29;20034;-96
2021/12/24 02:09:48;;;;;;;23.38;3.92;;;;;;;12.71;70.98;99570.28;4844325;29;20026;-94
2021/12/24 02:12:15;;;;;;;22.17;4.35;;;;;;;12.79;71.20;99565.16;4853286;29;20030;-95
2021/12/24 02:14:41;;;;;;;29.73;4.43;;;;;;;12.78;71.29;99565.31;4856121;29;20034;-95
2021/12/24 02:30:41;;;;;;;13.57;2.83;;;;;;;12.19;70.06;99536.31;4844049;29;20040;-94
2021/12/24 02:33:07;;;;;;;17.70;4.32;;;;;;;12.07;70.36;99534.75;4842653;29;20026;-95
2021/12/24 02:35:33;;;;;;;9.02;2.00;;;;;;;12.15;70.87;99536.72;4842801;29;20029;-95
2021/12/24 02:38:00;;;;;;;17.60;3.50;;;;;;;12.12;70.68;99545.69;4842860;29;20030;-94
2021/12/24 02:40:27;;;;;;;24.83;3.50;;;;;;;11.99;70.59;99535.44;4842474;29;20482;-95
2021/12/24 02:42:55;;;;;;;16.98;3.60;;;;;;;11.89;70.55;99532.78;4842452;29;20030;-95
2021/12/24 02:45:22;;;;;;;13.82;3.75;;;;;;;11.75;70.01;99527.88;4842693;29;20030;-95
2021/12/24 02:55:30;;;;;;;32.03;5.85;;;;;;;11.61;71.84;99521.16;4843961;29;20040;-94
2021/12/24 02:57:55;;;;;;;23.50;5.05;;;;;;;11.74;71.53;99523.56;4842257;29;20025;-95
2021/12/24 03:00:25;;;;;;;27.95;4.45;;;;;;;11.87;71.65;99525.97;4842139;29;20057;-94
2021/12/24 03:02:51;;;;;;;17.73;4.10;;;;;;;11.97;71.60;99536.53;4842091;29;20095;-94
2021/12/24 03:05:20;;;;;;;14.07;3.00;;;;;;;11.89;71.11;99535.41;4842278;29;20053;-95
2021/12/24 03:07:46;;;;;;;17.42;2.60;;;;;;;11.88;70.76;99538.94;4843304;29;20041;-93
2021/12/24 03:10:16;;;;;;;13.95;3.25;;;;;;;12.08;71.26;99541.66;4842196;29;20026;-95
2021/12/24 03:12:44;;;;;;;23.00;4.10;;;;;;;12.01;70.93;99536.13;4841998;29;20026;-94
2021/12/24 03:15:12;;;;;;;15.90;2.88;;;;;;;12.04;71.05;99529.75;4843278;29;20044;-94
2021/12/24 03:17:38;;;;;;;19.85;4.53;;;;;;;12.12;71.36;99526.44;4841747;29;20030;-94
2021/12/24 03:20:08;;;;;;;27.08;5.18;;;;;;;12.16;71.51;99526.03;4841557;29;20497;-95
2021/12/24 03:22:46;;;;;;;25.90;4.13;;;;;;;12.17;70.91;99526.88;4841482;29;20089;-95
2021/12/24 03:25:12;;;;;;;16.55;3.38;;;;;;;12.22;71.50;99525.50;4841396;29;20025;-95
2021/12/24 03:27:38;;;;;;;21.45;5.03;;;;;;;12.22;72.48;99515.00;4841565;29;20503;-94
2021/12/24 03:30:04;;;;;;;17.65;3.33;;;;;;;12.32;71.32;99509.72;4841982;29;20034;-95
2021/12/24 03:32:29;;;;;;;16.17;4.63;;;;;;;12.38;71.45;99508.34;4841366;29;20030;-95
2021/12/24 03:34:54;;;;;;;23.30;5.03;;;;;;;12.40;71.51;99511.66;4841488;29;20037;-95
2021/12/24 03:37:20;;;;;;;10.82;2.90;;;;;;;12.39;71.37;99495.03;4841280;29;20041;-94
2021/12/24 03:39:45;;;;;;;11.35;2.88;;;;;;;12.46;71.42;99503.19;4841420;29;20443;-94
2021/12/24 03:42:11;;;;;;;8.23;3.10;;;;;;;12.46;71.46;99492.66;4841124;29;20481;-94
2021/12/24 03:44:44;;;;;;;9.75;2.55;;;;;;;12.42;71.42;99486.03;4841257;29;20370;-95
2021/12/24 03:47:16;;;;;;;30.23;4.30;;;;;;;12.39;71.36;99489.78;4841259;29;20374;-95
2021/12/24 03:54:56;;;;;;;31.15;3.80;;;;;;;12.58;70.86;99467.88;4842330;29;20109;-94
2021/12/24 03:57:42;;;;;;;21.15;4.60;;;;;;;12.69;71.25;99469.53;4840958;29;20026;-95
2021/12/24 04:00:23;;;;;;;23.33;4.07;;;;;;;12.70;70.75;99466.75;4840657;29;20077;-94
2021/12/24 04:02:49;;;;;;;29.55;3.55;;;;;;;12.81;70.63;99472.81;4840997;29;20054;-93
2021/12/24 04:05:15;;;;;;;18.17;3.47;;;;;;;12.73;70.87;99465.63;4841027;29;20030;-96
2021/12/24 04:07:40;;;;;;;21.60;4.18;;;;;;;12.72;70.65;99463.13;4841128;29;20117;-95
2021/12/24 04:10:26;;;;;;;18.02;3.92;;;;;;;12.87;70.45;99467.00;4840977;29;20029;-94
2021/12/24 04:12:52;;;;;;;23.10;4.38;;;;;;;12.85;70.19;99466.31;4840808;29;20026;-94
2021/12/24 04:15:17;;;;;;;23.88;4.88;;;;;;;12.80;69.25;99458.00;4841114;29;20037;-94
2021/12/24 04:17:44;;;;;;;21.67;3.90;;;;;;;12.65;69.43;99455.78;4840870;29;20026;-95
2021/12/24 04:25:27;;;;;;;19.02;3.95;;;;;;;12.45;70.50;99456.81;4842152;29;20592;-93
2021/12/24 04:27:56;;;;;;;20.77;3.50;;;;;;;12.46;70.26;99450.53;4840404;29;20065;-95
2021/12/24 04:30:26;;;;;;;15.65;3.10;;;;;;;12.54;70.47;99445.44;4840720;29;20029;-95
2021/12/24 04:33:40;;;;;;;19.52;3.15;;;;;;;12.50;70.44;99444.88;4840795;29;20099;-94
2021/12/24 04:35:45;;;;;;;18.55;3.80;;;;;;;12.60;70.76;99429.06;4844398;29;20042;-94
2021/12/24 04:51:42;;;;;;;16.85;3.10;;;;;;;12.25;70.15;99417.31;4841829;29;20104;-95
2021/12/24 05:04:34;;;;;;;8.30;2.78;;;;;;;11.95;70.15;99417.44;4842157;29;20385;-95
2021/12/24 05:07:21;;;;;;;23.00;3.35;;;;;;;11.93;70.70;99420.22;4840686;29;20018;-94
2021/12/24 05:09:45;;;;;;;10.82;2.90;;;;;;;11.90;70.67;99416.06;4841669;29;20438;-95
2021/12/24 05:12:10;;;;;;;13.13;2.58;;;;;;;11.95;70.72;99418.28;4840748;29;20481;-95
2021/12/24 05:14:36;;;;;;;9.40;1.92;;;;;;;11.92;70.83;99415.09;4840735;29;20030;-95
2021/12/24 05:17:51;;;;;;;13.95;2.58;;;;;;;12.05;70.53;99423.56;4840670;29;20026;-95
2021/12/24 05:22:36;;;;;;;11.82;2.50;;;;;;;12.04;70.84;99403.47;4842032;29;20041;-94
2021/12/24 05:25:02;;;;;;;19.63;3.72;;;;;;;12.13;71.50;99414.97;4840622;29;20034;-95
2021/12/24 05:27:28;;;;;;;15.80;2.80;;;;;;;12.16;71.11;99412.06;4840403;29;20037;-95
2021/12/24 05:29:55;;;;;;;12.50;2.45;;;;;;;12.23;71.10;99415.81;4840575;29;20129;-94
2021/12/24 05:32:21;;;;;;;7.97;1.80;;;;;;;12.28;71.11;99418.84;4840017;29;20045;-96
2021/12/24 05:34:46;;;;;;;29.90;4.20;;;;;;;12.32;71.29;99419.38;4840328;29;20041;-95
2021/12/24 05:37:12;;;;;;;15.52;3.00;;;;;;;12.34;71.25;99418.28;4840364;29;20038;-95
2021/12/24 05:39:37;;;;;;;19.20;3.10;;;;;;;12.42;71.64;99409.69;4842226;29;20097;-95
2021/12/24 05:42:04;;;;;;;19.80;2.97;;;;;;;12.48;71.49;99414.41;4843215;29;20061;-95
2021/12/24 05:44:32;;;;;;;17.33;3.40;;;;;;;12.46;70.97;99413.69;4843501;29;20030;-94
2021/12/24 05:46:57;;;;;;;11.95;2.28;;;;;;;12.46;70.51;99413.69;4843606;29;20030;-95
2021/12/24 05:49:23;;;;;;;15.48;2.38;;;;;;;12.47;70.90;99413.56;4843283;29;20033;-95
2021/12/24 05:51:48;;;;;;;14.10;2.60;;;;;;;12.44;70.86;99410.38;4843333;29;20029;-94
2021/12/24 05:54:13;;;;;;;11.50;2.53;;;;;;;12.44;70.96;99407.72;4843376;29;20500;-94
2021/12/24 05:56:39;;;;;;;12.23;2.13;;;;;;;12.44;71.02;99402.47;4856652;29;20460;-95
2021/12/24 05:59:05;;;;;;;8.85;2.25;;;;;;;12.48;71.21;99419.66;4860861;29;20120;-94
2021/12/24 06:01:31;;;;;;;14.27;2.15;;;;;;;12.44;70.85;99411.22;4861381;29;20480;-95
2021/12/24 06:03:56;;;;;;;13.93;2.75;;;;;;;12.36;70.50;99411.09;4861617;29;20036;-95
2021/12/24 06:06:22;;;;;;;10.10;2.33;;;;;;;12.35;70.60;99422.56;4862893;29;20036;-95
2021/12/24 06:08:48;;;;;;;10.07;2.13;;;;;;;12.27;70.68;99409.28;4862586;29;20041;-94
2021/12/24 06:11:14;;;;;;;12.00;2.38;;;;;;;12.24;70.60;99415.66;4861360;29;20025;-95
2021/12/24 06:13:40;;;;;;;9.70;2.45;;;;;;;12.20;70.53;99406.38;4861441;29;20120;-95
2021/12/24 06:16:07;;;;;;;12.07;2.05;;;;;;;12.16;70.88;99402.34;4861481;29;20469;-95
2021/12/24 06:18:32;;;;;;;19.33;3.17;;;;;;;12.09;70.26;99407.34;4861499;29;20109;-96
2021/12/24 06:21:03;;;;;;;15.55;2.80;;;;;;;11.98;70.21;99396.94;4861226;29;20393;-96
2021/12/24 06:23:29;;;;;;;13.13;2.15;;;;;;;11.99;70.68;99403.06;4861238;29;20062;-96
2021/12/24 06:25:57;;;;;;;14.68;3.38;;;;;;;11.98;70.87;99406.66;4861132;29;20025;-95
2021/12/24 06:28:23;;;;;;;17.85;3.10;;;;;;;12.02;70.92;99400.16;4861097;29;20029;-95
2021/12/24 06:30:49;;;;;;;15.00;2.53;;;;;;;12.06;70.88;99406.78;4861296;29;20025;-94
2021/12/24 06:33:15;;;;;;;13.10;2.95;;;;;;;11.81;72.02;99408.13;4861353;29;20108;-94
2021/12/24 06:35:41;;;;;;;18.08;3.08;;;;;;;12.09;71.53;99404.72;4861122;29;20125;-95
2021/12/24 06:38:07;;;;;;;13.23;2.70;;;;;;;12.06;71.45;99412.06;4861059;29;20040;-95
2021/12/24 06:40:33;;;;;;;9.90;2.40;;;;;;;11.96;71.92;99413.84;4860737;29;20040;-95
2021/12/24 06:42:59;;;;;;;22.77;3.95;;;;;;;12.13;71.55;99421.06;4862037;29;20025;-94
2021/12/24 06:45:26;;;;;;;16.45;3.30;;;;;;;12.13;71.48;99414.97;4860691;29;20076;-94
2021/12/24 06:47:53;;;;;;;11.10;2.75;;;;;;;12.14;70.96;99422.72;4860722;29;20029;-95
2021/12/24 06:50:19;;;;;;;14.52;3.08;;;;;;;12.06;70.56;99419.94;4860137;29;20499;-95
2021/12/24 06:52:45;;;;;;;12.07;3.33;;;;;;;12.02;70.69;99415.94;4860224;29;20030;-96
2021/12/24 06:55:11;;;;;;;8.27;2.63;;;;;;;11.97;70.77;99410.28;4860735;29;20026;-95
2021/12/24 06:57:38;;;;;;;7.18;2.78;;;;;;;11.82;70.88;99401.91;4860324;29;20104;-94
2021/12/24 07:00:05;;;;;;;12.25;2.55;;;;;;;11.77;70.55;99404.94;4860396;29;20034;-95
2021/12/24 07:02:30;;;;;;;15.80;3.30;;;;;;;11.56;70.86;99405.03;4860291;29;20489;-94
2021/12/24 07:04:55;;;;;;;9.63;2.50;;;;;;;11.62;70.29;99395.78;4861617;29;20113;-95
2021/12/24 07:07:21;;;;;;;21.65;3.58;;;;;;;11.51;70.13;99394.09;4860483;29;20038;-94
2021/12/24 07:09:46;;;;;;;6.78;2.13;;;;;;;11.44;70.09;99406.94;4860686;29;20476;-95
2021/12/24 07:12:13;;;;;;;9.63;2.35;;;;;;;11.37;69.95;99413.69;4860421;29;20033;-94
2021/12/24 07:14:40;;;;;;;15.07;2.70;;;;;;;11.38;70.27;99411.91;4860306;29;20053;-95
2021/12/24 07:17:06;;;;;;;17.90;3.38;;;;;;;11.18;71.37;99405.78;4860493;29;20544;-95
2021/12/24 07:19:32;;;;;;;9.25;2.95;;;;;;;11.36;71.48;99400.72;4860456;29;20030;-94
2021/12/24 07:21:57;;;;;;;14.55;3.28;;;;;;;11.44;71.78;99414.00;4859866;29;20082;-95
2021/12/24 07:24:23;;;;;;;13.57;3.40;;;;;;;11.64;71.19;99410.44;4860055;29;20037;-95
2021/12/24 07:26:48;;;;;;;17.33;3.30;;;;;;;11.65;71.29;99406.00;4860187;29;20021;-94
2021/12/24 07:29:14;;;;;;;9.43;2.67;;;;;;;11.72;71.23;99407.16;4859989;29;20022;-94
2021/12/24 07:31:39;;;;;;;12.10;3.55;;;;;;;11.74;71.17;99413.09;4859803;29;20528;-94
2021/12/24 07:34:05;;;;;;;16.48;3.63;;;;;;;11.79;71.25;99410.91;4859901;29;20370;-94
2021/12/24 07:36:30;;;;;;;18.02;3.35;;;;;;;11.81;71.06;99401.09;4860008;29;20116;-95
2021/12/24 07:38:56;;;;;;;12.18;3.72;;;;;;;11.84;71.04;99398.16;4859994;29;20024;-95
2021/12/24 07:41:21;;;;;;;8.30;3.38;;;;;;;11.90;71.54;99389.75;4859537;29;20099;-94
2021/12/24 07:43:47;;;;;;;21.30;4.03;;;;;;;12.00;71.19;99394.19;4861126;29;20100;-95
2021/12/24 07:46:13;;;;;;;15.40;4.40;;;;;;;11.99;71.09;99406.53;4865552;29;20039;-94
2021/12/24 07:48:47;;;;;;;16.48;4.55;;;;;;;11.88;71.09;99394.28;4873620;29;20028;-94
2021/12/24 07:54:00;;;;;;;16.50;4.03;;;;;;;11.77;70.62;99404.94;4861327;29;20045;-94
2021/12/24 07:56:29;;;;;;;12.90;3.65;;;;;;;11.77;70.80;99404.94;4863897;29;20033;-96
2021/12/24 07:58:55;;;;;;;11.85;3.72;;;;;;;11.74;70.92;99399.13;4859674;29;20037;-94
2021/12/24 08:01:25;;;;;;;12.75;4.35;;;;;;;11.85;71.28;99401.66;4860331;29;20029;-95
2021/12/24 08:03:55;;;;;;;21.65;5.05;;;;;;;11.87;71.18;99390.00;4858774;29;20026;-96
2021/12/24 08:06:24;;;;;;;15.15;4.30;;;;;;;11.85;71.08;99385.88;4860524;29;20502;-94
2021/12/24 08:08:50;;;;;;;11.32;4.00;;;;;;;11.84;71.29;99379.75;4859483;29;20025;-95
2021/12/24 08:11:15;;;;;;;18.95;4.38;;;;;;;11.88;71.37;99390.84;4859323;29;20380;-95
2021/12/24 08:13:42;;;;;;;18.60;5.57;;;;;;;11.77;71.54;99373.41;4859198;29;20093;-96
2021/12/24 08:16:08;;;;;;;12.85;3.42;;;;;;;11.84;71.64;99369.22;4859464;29;20068;-95
2021/12/24 08:18:33;;;;;;;17.40;5.00;;;;;;;11.89;71.52;99360.97;4859236;29;20060;-94
2021/12/24 08:20:58;;;;;;;11.20;3.58;;;;;;;11.90;71.75;99360.00;4859064;29;20444;-95
2021/12/24 08:23:24;;;;;;;12.55;4.53;;;;;;;11.84;71.29;99360.50;4859113;29;20373;-96
2021/12/24 08:25:53;;;;;;;11.82;3.95;;;;;;;11.66;71.98;99366.44;4859122;29;20029;-95
2021/12/24 08:28:19;;;;;;;11.30;4.07;;;;;;;11.73;71.55;99360.63;4859379;29;20026;-95
2021/12/24 08:30:44;;;;;;;9.90;3.75;;;;;;;11.83;70.69;99372.84;4859015;29;20033;-96
2021/12/24 08:33:14;;;;;;;13.70;3.95;;;;;;;11.90;70.89;99368.69;4858942;29;20060;-95
2021/12/24 08:35:40;;;;;;;15.95;4.10;;;;;;;11.97;71.09;99362.91;4859003;29;20125;-96
2021/12/24 08:38:05;;;;;;;17.58;4.93;;;;;;;12.07;70.90;99363.75;4859312;29;20090;-94
2021/12/24 08:40:30;;;;;;;17.08;4.78;;;;;;;12.11;71.16;99380.91;4858947;29;20033;-96
2021/12/24 08:42:56;;;;;;;22.45;4.90;;;;;;;12.12;71.49;99376.47;4858932;29;20028;-95
2021/12/24 08:45:21;;;;;;;19.17;5.18;;;;;;;12.18;71.11;99354.84;4859036;29;20029;-94
2021/12/24 08:47:47;;;;;;;21.20;4.43;;;;;;;12.22;70.92;99351.81;4859016;29;20030;-95
2021/12/24 08:50:13;;;;;;;19.23;4.70;;;;;;;12.40;70.99;99358.97;4858906;29;20159;-95
2021/12/24 08:52:39;;;;;;;25.10;5.15;;;;;;;12.41;71.90;99356.19;4858711;29;20090;-95
2021/12/24 08:55:05;;;;;;;8.52;3.78;;;;;;;12.43;71.78;99346.38;4858832;29;20029;-93
2021/12/24 08:57:30;;;;;;;15.35;4.57;;;;;;;12.52;71.55;99352.59;4858769;29;20033;-92
2021/12/24 08:59:55;;;;;;;19.75;4.30;;;;;;;12.56;70.88;99364.50;4858935;29;20468;-93
2021/12/24 09:02:21;;;;;;;18.67;4.63;;;;;;;12.58;71.11;99366.97;4858623;29;20509;-93
2021/12/24 09:04:46;;;;;;;22.80;5.10;;;;;;;12.55;71.37;99354.94;4858920;29;20060;-95
2021/12/24 09:07:11;;;;;;;13.02;3.80;;;;;;;12.66;71.26;99360.03;4858851;29;20445;-95
2021/12/24 09:09:37;;;;;;;15.90;4.45;;;;;;;12.68;71.03;99362.53;4858812;29;20429;-93
2021/12/24 09:12:03;;;;;;;23.88;4.82;;;;;;;12.82;70.86;99362.06;4858967;29;20512;-95
2021/12/24 09:14:28;;;;;;;18.48;5.40;;;;;;;12.78;71.38;99352.78;4859975;29;20489;-94
2021/12/24 09:16:55;;;;;;;21.40;4.80;;;;;;;12.90;70.88;99358.69;4862494;29;20021;-93
2021/12/24 09:19:24;;;;;;;18.33;5.35;;;;;;;12.84;71.51;99354.00;4862213;29;20243;-94
2021/12/24 09:21:51;;;;;;;17.75;4.38;;;;;;;12.86;71.57;99354.69;4862073;29;20404;-94
2021/12/24 09:24:19;;;;;;;12.43;3.40;;;;;;;12.77;71.87;99345.84;4862387;29;20051;-94
2021/12/24 09:26:44;;;;;;;11.13;4.10;;;;;;;12.79;72.13;99348.34;4862047;29;20034;-93
2021/12/24 09:29:11;;;;;;;24.33;5.47;;;;;;;12.78;72.08;99334.34;4863402;29;20029;-94
2021/12/24 09:31:37;;;;;;;13.07;5.68;;;;;;;12.88;72.10;99331.69;4862091;29;20033;-94
2021/12/24 09:34:03;;;;;;;16.60;4.25;;;;;;;12.95;72.29;99338.00;4861943;29;20033;-94
2021/12/24 09:36:29;;;;;;;13.23;3.97;;;;;;;13.08;71.79;99327.97;4861968;29;20400;-93
2021/12/24 09:38:57;;;;;;;16.65;4.32;;;;;;;13.10;71.94;99338.34;4862206;29;20025;-94
2021/12/24 09:41:23;;;;;;;12.57;5.43;;;;;;;13.13;71.76;99346.00;4861809;29;20037;-94
2021/12/24 09:43:50;;;;;;;16.60;4.18;;;;;;;13.37;71.43;99344.59;4863148;29;20030;-95
2021/12/24 09:46:15;;;;;;;9.55;3.30;;;;;;;13.26;71.46;99345.63;4861978;29;20475;-94
2021/12/24 09:48:42;;;;;;;18.95;5.15;;;;;;;13.22;71.40;99346.91;4862168;29;20057;-95
2021/12/24 09:51:08;;;;;;;21.10;5.22;;;;;;;13.39;71.78;99338.22;4861656;29;20037;-94
2021/12/24 09:53:36;;;;;;;19.10;5.63;;;;;;;13.41;71.51;99341.53;4861792;29;20040;-93
2021/12/24 09:56:03;;;;;;;23.90;4.80;;;;;;;13.48;70.90;99336.50;4861736;29;20025;-94
2021/12/24 09:58:28;;;;;;;14.70;4.90;;;;;;;13.61;70.37;99329.06;4861857;29;20124;-95
2021/12/24 10:00:53;;;;;;;12.95;4.28;;;;;;;13.76;69.93;99341.72;4862834;29;20185;-95
2021/12/24 10:03:32;;;;;;;15.95;4.70;;;;;;;13.70;70.12;99343.13;4861670;29;20540;-93
2021/12/24 10:05:57;;;;;;;21.85;4.95;;;;;;;13.66;69.93;99339.16;4861591;29;20480;-95
2021/12/24 10:08:25;;;;;;;16.30;4.68;;;;;;;13.69;70.18;99341.50;4861409;29;20041;-94
2021/12/24 10:10:54;;;;;;;21.90;4.85;;;;;;;13.55;69.80;99323.56;4861465;29;20366;-93
2021/12/24 10:13:26;;;;;;;19.75;4.78;;;;;;;13.36;70.77;99324.50;4861630;29;20396;-94
2021/12/24 10:15:57;;;;;;;17.20;4.28;;;;;;;13.39;71.13;99324.19;4862497;29;20433;-95
2021/12/24 10:18:45;;;;;;;24.63;3.85;;;;;;;13.54;70.26;99327.16;4861156;29;20033;-95
2021/12/24 10:21:19;;;;;;;20.63;4.63;;;;;;;13.70;70.25;99327.31;4861007;29;20045;-96
2021/12/24 10:23:54;;;;;;;13.55;3.65;;;;;;;13.64;70.36;99327.91;4860974;29;20120;-96
2021/12/24 10:26:34;;;;;;;17.23;4.07;;;;;;;13.66;70.42;99320.69;4860613;29;20413;-95
2021/12/24 10:29:09;;;;;;;16.15;3.88;;;;;;;13.58;70.32;99317.97;4861406;29;20036;-94
2021/12/24 10:31:54;;;;;;;16.55;4.00;;;;;;;13.58;70.75;99328.53;4860860;29;20037;-95
2021/12/24 10:34:30;;;;;;;15.35;3.90;;;;;;;13.53;70.80;99314.97;4870409;29;20022;-94
2021/12/24 10:37:04;;;;;;;12.38;4.07;;;;;;;13.56;70.82;99314.66;4874478;29;20037;-95
2021/12/24 10:39:47;;;;;;;10.30;3.45;;;;;;;13.66;71.02;99312.78;4863141;29;20029;-95
2021/12/24 10:42:35;;;;;;;9.05;3.30;;;;;;;13.65;70.66;99313.75;4860713;29;20041;-93
2021/12/24 10:45:14;;;;;;;14.48;3.55;;;;;;;13.70;70.36;99311.47;4861062;29;20025;-93
2021/12/24 10:47:41;;;;;;;16.27;3.42;;;;;;;13.82;70.07;99312.94;4860992;29;20025;-94
2021/12/24 10:50:38;;;;;;;14.23;3.90;;;;;;;13.79;70.16;99309.75;4860935;29;20043;-94
2021/12/24 10:53:16;;;;;;;18.88;4.80;;;;;;;13.78;70.05;99298.38;4860707;29;20492;-94
2021/12/24 10:55:53;;;;;;;22.27;3.80;;;;;;;13.81;69.88;99298.06;4861136;29;20025;-94
2021/12/24 10:58:21;;;;;;;19.90;3.53;;;;;;;13.78;70.36;99290.44;4861966;29;20057;-93
2021/12/24 11:00:56;;;;;;;6.00;2.03;;;;;;;13.82;71.04;99293.63;4860468;29;20085;-94
2021/12/24 11:03:27;;;;;;;16.98;3.00;;;;;;;13.71;71.04;99275.41;4860750;29;20484;-94
2021/12/24 11:05:55;;;;;;;13.00;2.75;;;;;;;13.85;71.21;99282.78;4860960;29;20033;-95
2021/12/24 11:08:23;;;;;;;22.98;3.10;;;;;;;13.91;70.79;99278.69;4860665;29;20061;-94
2021/12/24 11:10:55;;;;;;;17.20;3.33;;;;;;;14.06;70.73;99277.16;4860493;29;20029;-94
2021/12/24 11:13:28;;;;;;;20.75;3.15;;;;;;;13.96;70.62;99271.97;4860824;29;20508;-94
2021/12/24 11:15:54;;;;;;;16.88;3.13;;;;;;;13.84;70.09;99255.56;4860710;29;20215;-94
2021/12/24 11:18:24;;;;;;;11.57;2.83;;;;;;;13.86;71.40;99252.75;4860779;29;20486;-94
2021/12/24 11:20:55;;;;;;;12.48;3.15;;;;;;;13.94;70.58;99250.19;4860554;29;20069;-94
2021/12/24 11:23:23;;;;;;;16.27;4.10;;;;;;;14.07;69.36;99255.06;4860612;29;20579;-95
2021/12/24 11:26:03;;;;;;;11.25;3.25;;;;;;;13.77;70.67;99254.50;4860705;29;20264;-95
2021/12/24 11:28:29;;;;;;;13.13;3.03;;;;;;;13.76;70.96;99252.84;4860613;29;20041;-93
2021/12/24 11:30:58;;;;;;;14.18;3.63;;;;;;;13.78;70.22;99261.44;4860633;29;20057;-94
2021/12/24 11:33:26;;;;;;;12.02;4.88;;;;;;;13.85;70.66;99251.09;4860289;29;20037;-94
2021/12/24 11:35:53;;;;;;;14.13;4.05;;;;;;;14.01;69.91;99260.94;4860101;29;20479;-94
2021/12/24 11:38:36;;;;;;;9.88;3.50;;;;;;;14.02;69.90;99244.13;4860121;29;20025;-95
2021/12/24 11:41:05;;;;;;;13.05;3.33;;;;;;;13.96;69.52;99244.75;4859825;29;20492;-94
2021/12/24 11:43:34;;;;;;;14.82;3.92;;;;;;;13.81;70.65;99236.56;4860069;29;20037;-95
2021/12/24 11:46:02;;;;;;;13.45;4.00;;;;;;;13.85;70.10;99237.91;4860432;29;20029;-94
2021/12/24 11:48:31;;;;;;;16.83;4.90;;;;;;;13.86;70.93;99239.56;4860931;29;20033;-94
2021/12/24 11:50:58;;;;;;;13.02;3.38;;;;;;;13.95;70.66;99229.91;4860340;29;20128;-95
2021/12/24 11:53:25;;;;;;;12.10;3.83;;;;;;;13.78;71.35;99224.50;4860244;29;20166;-94
2021/12/24 11:55:51;;;;;;;16.75;3.60;;;;;;;13.84;71.05;99223.06;4861196;29;20503;-95
2021/12/24 11:58:20;;;;;;;10.93;3.35;;;;;;;13.94;70.63;99215.88;4859909;29;20036;-94
2021/12/24 12:00:49;;;;;;;8.45;3.20;;;;;;;13.98;70.13;99217.22;4859602;29;20032;-94
2021/12/24 12:03:30;;;;;;;12.68;3.08;;;;;;;13.83;71.14;99216.13;4859570;29;20072;-93
2021/12/24 12:05:55;;;;;;;6.80;2.80;;;;;;;14.02;70.58;99207.16;4859529;29;20029;-93
2021/12/24 12:08:27;;;;;;;12.25;3.30;;;;;;;13.84;70.51;99209.84;4859501;29;20036;-94
2021/12/24 12:11:15;;;;;;;16.67;4.13;;;;;;;13.83;70.85;99202.94;4859446;29;20037;-93
2021/12/24 12:14:04;;;;;;;9.57;2.80;;;;;;;13.51;72.42;99203.50;4859981;29;20101;-96
2021/12/24 12:16:38;;;;;;;12.75;2.80;;;;;;;13.68;72.20;99197.38;4859955;29;20025;-95
2021/12/24 12:19:25;;;;;;;10.48;3.00;;;;;;;13.92;71.13;99198.53;4860722;29;20147;-96
2021/12/24 12:22:43;;;;;;;7.85;2.80;;;;;;;13.88;71.32;99192.72;4859795;29;20037;-94
2021/12/24 12:25:12;;;;;;;13.55;3.13;;;;;;;13.57;72.16;99179.19;4859827;29;20040;-94
2021/12/24 12:27:43;;;;;;;11.90;2.80;;;;;;;13.61;72.17;99175.25;4859845;29;20033;-96
2021/12/24 12:30:39;;;;;;;11.82;3.42;;;;;;;13.83;71.47;99174.75;4859614;29;20030;-94
2021/12/24 12:33:30;;;;;;;15.75;4.38;;;;;;;13.73;72.14;99173.19;4859641;29;20139;-94
2021/12/24 12:36:02;;;;;;;9.60;3.13;;;;;;;13.37;73.22;99168.81;4860751;29;20081;-94
2021/12/24 12:38:35;;;;;;;10.45;2.67;;;;;;;13.73;72.42;99171.38;4859251;29;20036;-93
2021/12/24 12:41:33;;;;;;;13.77;3.05;;;;;;;13.65;72.67;99160.78;4859238;29;20480;-95
2021/12/24 12:44:01;;;;;;;10.73;3.10;;;;;;;13.52;73.28;99163.00;4859465;29;20037;-95
2021/12/24 12:46:33;;;;;;;9.18;2.95;;;;;;;13.75;72.29;99150.94;4859396;29;20369;-94
2021/12/24 12:49:00;;;;;;;;;;;;;;;14.02;71.28;99151.75;4863033;29;20089;-96
2021/12/24 12:51:51;;;;;;;9.02;2.55;;;;;;;14.02;70.94;99149.97;4865569;29;19913;-95
2021/12/24 12:54:35;;;;;;;6.55;2.65;;;;;;;14.28;70.76;99149.09;4865666;29;20030;-95
2021/12/24 12:57:14;;;;;;;10.48;3.15;;;;;;;14.25;71.04;99138.84;4865338;29;20033;-95
2021/12/24 13:00:00;;;;;;;11.90;2.83;;;;;;;14.15;70.90;99144.22;4865600;29;20032;-95
2021/12/24 13:02:57;;;;;;;15.10;5.05;;;;;;;14.13;71.56;99135.66;4865545;29;20124;-96
2021/12/24 13:05:47;;;;;;;8.73;2.50;;;;;;;13.98;71.71;99119.59;4865279;29;20029;-96
2021/12/24 13:08:17;;;;;;;7.20;2.80;;;;;;;14.14;71.42;99108.28;4865634;29;20078;-96
2021/12/24 13:11:03;;;;;;;8.77;3.13;;;;;;;14.22;71.81;99110.94;4867556;29;20051;-96
2021/12/24 13:13:29;;;;;;;9.32;3.25;;;;;;;14.11;72.18;99113.03;4868277;29;20549;-95